createdAt,value
2022-08-09T00:01:23.856Z,1.23
2022-08-09T00:04:05.476Z,1.30
2022-08-09T00:06:47.241Z,1.10
2022-08-09T00:09:17.900Z,1.10
2022-08-09T00:12:02.586Z,1.20
2022-08-09T00:14:36.383Z,1.20
2022-08-09T00:17:06.871Z,1.07
2022-08-09T00:19:35.544Z,1.00
2022-08-09T00:22:04.535Z,1.20
2022-08-09T00:24:34.346Z,1.20
2022-08-09T00:27:03.865Z,1.23
2022-08-09T00:29:39.434Z,1.37
2022-08-09T00:32:26.941Z,1.00
2022-08-09T00:34:56.834Z,1.33
2022-08-09T00:37:27.278Z,1.10
2022-08-09T00:40:13.898Z,1.60
2022-08-09T00:44:10.202Z,1.20
2022-08-09T00:45:35.204Z,1.30
2022-08-09T00:48:04.425Z,1.23
2022-08-09T00:50:34.243Z,1.40
2022-08-09T00:53:10.223Z,1.30
2022-08-09T00:56:04.392Z,1.40
2022-08-09T00:58:32.046Z,1.40
2022-08-09T01:01:00.684Z,1.33
2022-08-09T01:03:46.340Z,1.30
2022-08-09T01:06:19.526Z,1.20
2022-08-09T01:08:56.903Z,1.50
2022-08-09T01:11:40.701Z,1.37
2022-08-09T01:14:27.651Z,1.43
2022-08-09T01:17:04.018Z,1.33
2022-08-09T01:19:57.051Z,1.20
2022-08-09T01:22:54.740Z,1.33
2022-08-09T01:25:37.488Z,1.23
2022-08-09T01:28:12.044Z,1.33
2022-08-09T01:30:51.818Z,1.10
2022-08-09T01:33:23.482Z,1.40
2022-08-09T01:35:54.681Z,1.47
2022-08-09T01:38:29.920Z,1.30
2022-08-09T01:41:06.260Z,1.10
2022-08-09T01:43:50.272Z,1.20
2022-08-09T01:46:24.625Z,1.30
2022-08-09T01:48:56.856Z,1.10
2022-08-09T01:51:26.189Z,1.53
2022-08-09T01:53:58.122Z,1.43
2022-08-09T01:56:27.795Z,1.07
2022-08-09T01:58:58.553Z,1.00
2022-08-09T02:01:58.753Z,1.40
2022-08-09T02:04:17.553Z,1.33
2022-08-09T02:07:04.310Z,1.50
2022-08-09T02:09:42.207Z,1.60
2022-08-09T02:12:13.427Z,1.37
2022-08-09T02:14:51.537Z,1.03
2022-08-09T02:17:59.536Z,1.50
2022-08-09T02:20:24.966Z,1.30
2022-08-09T02:22:56.252Z,1.30
2022-08-09T02:25:32.956Z,1.20
2022-08-09T02:28:17.706Z,1.40
2022-08-09T02:30:50.052Z,1.47
2022-08-09T02:33:58.124Z,1.20
2022-08-09T02:36:17.326Z,1.47
2022-08-09T02:38:51.034Z,1.60
2022-08-09T02:41:23.959Z,1.43
2022-08-09T02:43:54.754Z,1.87
2022-08-09T02:46:27.481Z,2.10
2022-08-09T02:48:57.793Z,1.67
2022-08-09T02:51:27.614Z,1.53
2022-08-09T02:54:02.020Z,1.60
2022-08-09T02:56:32.869Z,1.90
2022-08-09T02:59:03.325Z,1.80
2022-08-09T03:01:43.132Z,1.80
2022-08-09T03:04:26.215Z,1.80
2022-08-09T03:06:57.910Z,1.83
2022-08-09T03:09:33.646Z,1.63
2022-08-09T03:12:06.473Z,1.33
2022-08-09T03:14:40.779Z,1.40
2022-08-09T03:17:16.589Z,1.90
2022-08-09T03:19:59.278Z,1.63
2022-08-09T03:22:32.823Z,1.50
2022-08-09T03:25:25.930Z,1.50
2022-08-09T03:27:56.743Z,1.37
2022-08-09T03:30:29.207Z,1.70
2022-08-09T03:33:05.693Z,1.80
2022-08-09T03:35:44.313Z,1.40
2022-08-09T03:38:30.665Z,1.50
2022-08-09T03:40:59.402Z,1.23
2022-08-09T03:43:32.005Z,1.50
2022-08-09T03:46:04.447Z,1.67
2022-08-09T03:48:52.221Z,1.30
2022-08-09T03:51:56.443Z,1.63
2022-08-09T03:54:11.448Z,1.43
2022-08-09T03:56:41.176Z,1.93
2022-08-09T03:59:17.288Z,1.97
2022-08-09T04:01:59.156Z,1.37
2022-08-09T04:04:36.111Z,1.47
2022-08-09T04:07:07.272Z,1.40
2022-08-09T04:09:47.865Z,1.23
2022-08-09T04:12:44.510Z,1.10
2022-08-09T04:15:29.607Z,1.23
2022-08-09T04:18:02.189Z,1.23
2022-08-09T04:20:32.707Z,1.70
2022-08-09T04:23:01.912Z,1.50
2022-08-09T04:25:30.887Z,1.90
2022-08-09T04:28:03.745Z,1.80
2022-08-09T04:30:32.667Z,1.70
2022-08-09T04:33:01.129Z,1.83
2022-08-09T04:35:32.804Z,1.63
2022-08-09T04:38:03.642Z,2.50
2022-08-09T04:40:46.349Z,2.43
2022-08-09T04:43:15.289Z,1.80
2022-08-09T04:45:53.770Z,1.63
2022-08-09T04:48:23.968Z,1.60
2022-08-09T04:51:03.486Z,1.20
2022-08-09T04:53:31.994Z,1.53
2022-08-09T04:56:03.981Z,1.60
2022-08-09T04:58:32.970Z,1.40
2022-08-09T05:01:02.922Z,2.13
2022-08-09T05:03:43.236Z,2.00
2022-08-09T05:06:22.128Z,1.97
2022-08-09T05:09:00.373Z,2.53
2022-08-09T05:11:30.388Z,2.03
2022-08-09T05:14:01.305Z,2.70
2022-08-09T05:16:58.071Z,3.47
2022-08-09T05:19:25.944Z,3.00
2022-08-09T05:21:56.627Z,3.60
2022-08-09T05:24:25.223Z,4.10
2022-08-09T05:26:54.433Z,3.73
2022-08-09T05:29:24.287Z,3.97
2022-08-09T05:32:01.027Z,3.83
2022-08-09T05:34:31.724Z,4.77
2022-08-09T05:37:05.946Z,4.67
2022-08-09T05:39:43.857Z,4.40
2022-08-09T05:42:20.634Z,5.10
2022-08-09T05:45:02.649Z,4.20
2022-08-09T05:47:33.300Z,3.57
2022-08-09T05:50:28.170Z,3.20
2022-08-09T05:52:53.388Z,2.80
2022-08-09T05:55:23.334Z,2.47
2022-08-09T05:57:56.352Z,2.67
2022-08-09T06:00:26.481Z,2.00
2022-08-09T06:02:57.704Z,2.40
2022-08-09T06:05:30.826Z,2.40
2022-08-09T06:08:19.644Z,1.90
2022-08-09T06:10:53.891Z,2.15
2022-08-09T06:13:22.790Z,1.92
2022-08-09T06:15:52.357Z,1.98
2022-08-09T06:18:23.877Z,2.20
2022-08-09T06:20:54.507Z,2.10
2022-08-09T06:23:57.746Z,1.75
2022-08-09T06:26:20.829Z,2.00
2022-08-09T06:29:00.072Z,1.83
2022-08-09T06:31:40.618Z,1.73
2022-08-09T06:34:20.197Z,1.73
2022-08-09T06:36:59.016Z,1.95
2022-08-09T06:39:48.524Z,2.00
2022-08-09T06:42:30.939Z,1.70
2022-08-09T06:45:09.180Z,1.55
2022-08-09T06:48:00.757Z,1.45
2022-08-09T06:50:31.874Z,1.55
2022-08-09T06:53:03.132Z,1.58
2022-08-09T06:55:34.618Z,1.30
2022-08-09T06:58:04.921Z,1.30
2022-08-09T07:00:56.943Z,1.40
2022-08-09T07:03:27.015Z,1.20
2022-08-09T07:06:04.011Z,1.05
2022-08-09T07:08:37.041Z,1.05
2022-08-09T07:11:12.766Z,1.42
2022-08-09T07:14:05.223Z,1.30
2022-08-09T07:16:43.270Z,1.10
2022-08-09T07:19:23.533Z,1.40
2022-08-09T07:21:57.866Z,1.35
2022-08-09T07:24:32.083Z,1.02
2022-08-09T07:27:26.084Z,1.10
2022-08-09T07:30:02.880Z,1.00
2022-08-09T07:32:34.545Z,1.13
2022-08-09T07:35:08.118Z,1.20
2022-08-09T07:37:44.467Z,1.00
2022-08-09T07:40:18.277Z,0.70
2022-08-09T07:42:59.111Z,0.98
2022-08-09T07:45:37.718Z,1.05
2022-08-09T07:48:28.676Z,1.00
2022-08-09T07:51:09.351Z,0.90
2022-08-09T07:54:04.800Z,0.77
2022-08-09T07:56:45.033Z,0.82
2022-08-09T07:59:33.613Z,0.93
2022-08-09T08:02:13.129Z,1.08
2022-08-09T08:04:49.334Z,0.82
2022-08-09T08:08:44.047Z,0.82
2022-08-09T08:10:13.041Z,1.25
2022-08-09T08:12:45.162Z,0.82
2022-08-09T08:15:23.118Z,0.95
2022-08-09T08:17:58.194Z,0.88
2022-08-09T08:20:32.271Z,0.90
2022-08-09T08:23:15.907Z,0.80
2022-08-09T08:25:48.196Z,0.60
2022-08-09T08:28:31.803Z,0.68
2022-08-09T08:31:08.947Z,0.70
2022-08-09T08:33:52.981Z,0.80
2022-08-09T08:36:29.695Z,0.63
2022-08-09T08:39:00.167Z,0.75
2022-08-09T08:41:38.701Z,0.80
2022-08-09T08:44:26.907Z,0.70
2022-08-09T08:47:02.295Z,0.82
2022-08-09T08:49:46.473Z,0.70
2022-08-09T08:55:07.549Z,0.70
2022-08-09T08:57:37.451Z,0.63
2022-08-09T09:00:17.337Z,0.60
2022-08-09T09:03:08.379Z,0.47
2022-08-09T09:06:00.651Z,0.50
2022-08-09T09:08:40.262Z,0.35
2022-08-09T09:11:17.394Z,0.45
2022-08-09T09:13:56.671Z,0.63
2022-08-09T09:16:31.259Z,0.77
2022-08-09T09:19:36.508Z,0.85
2022-08-09T09:22:04.154Z,0.57
2022-08-09T09:24:35.238Z,0.77
2022-08-09T09:27:08.766Z,0.63
2022-08-09T09:30:08.799Z,0.55
2022-08-09T09:32:34.426Z,0.55
2022-08-09T09:35:07.543Z,0.73
2022-08-09T09:37:40.554Z,0.52
2022-08-09T09:40:11.780Z,0.70
2022-08-09T09:42:46.075Z,0.75
2022-08-09T09:45:25.629Z,0.40
2022-08-09T09:47:59.074Z,0.57
2022-08-09T09:50:51.004Z,0.50
2022-08-09T09:53:21.455Z,0.57
2022-08-09T09:55:57.599Z,0.40
2022-08-09T09:58:45.949Z,0.70
2022-08-09T10:01:31.244Z,0.57
2022-08-09T10:04:09.447Z,0.30
2022-08-09T10:06:46.871Z,0.50
2022-08-09T10:09:22.073Z,0.68
2022-08-09T10:12:14.792Z,0.45
2022-08-09T10:14:48.505Z,0.70
2022-08-09T10:17:40.560Z,0.80
2022-08-09T10:20:27.272Z,0.35
2022-08-09T10:23:17.217Z,0.50
2022-08-09T10:26:07.147Z,0.50
2022-08-09T10:28:38.894Z,0.52
2022-08-09T10:34:10.382Z,0.50
2022-08-09T10:36:46.779Z,0.40
2022-08-09T10:39:20.224Z,0.50
2022-08-09T10:41:49.562Z,0.60
2022-08-09T10:44:21.690Z,0.88
2022-08-09T10:48:12.127Z,0.40
2022-08-09T10:50:14.767Z,0.60
2022-08-09T10:53:10.080Z,0.63
2022-08-09T10:55:58.357Z,0.52
2022-08-09T10:58:33.915Z,0.45
2022-08-09T11:03:03.057Z,0.60
2022-08-09T11:04:29.776Z,0.40
2022-08-09T11:07:56.933Z,0.60
2022-08-09T11:10:18.572Z,0.55
2022-08-09T11:13:49.045Z,0.30
2022-08-09T11:16:38.127Z,0.60
2022-08-09T11:19:10.123Z,0.30
2022-08-09T11:22:05.167Z,0.50
2022-08-09T11:25:05.656Z,0.50
2022-08-09T11:28:05.485Z,0.43
2022-08-09T11:30:36.719Z,0.40
2022-08-09T11:33:08.888Z,0.50
2022-08-09T11:35:49.299Z,0.60
2022-08-09T11:38:22.150Z,0.52
2022-08-09T11:40:57.890Z,0.20
2022-08-09T11:43:42.124Z,0.50
2022-08-09T11:46:12.235Z,0.45
2022-08-09T11:48:50.967Z,0.40
2022-08-09T11:52:39.741Z,0.40
2022-08-09T11:54:27.771Z,0.38
2022-08-09T11:57:56.850Z,0.55
2022-08-09T12:00:25.667Z,0.50
2022-08-09T12:02:58.485Z,0.60
2022-08-09T12:05:38.000Z,0.50
2022-08-09T12:08:12.530Z,0.35
2022-08-09T12:10:52.936Z,0.73
2022-08-09T12:14:09.053Z,0.50
2022-08-09T12:16:37.898Z,1.67
2022-08-09T12:19:12.250Z,0.57
2022-08-09T12:21:50.243Z,0.57
2022-08-09T12:24:23.900Z,0.40
2022-08-09T12:29:11.903Z,0.45
2022-08-09T12:30:02.006Z,0.43
2022-08-09T12:32:44.510Z,0.60
2022-08-09T12:35:17.073Z,0.60
2022-08-09T12:37:51.756Z,0.30
2022-08-09T12:40:23.195Z,0.43
2022-08-09T12:42:53.989Z,0.60
2022-08-09T12:45:34.566Z,0.52
2022-08-09T12:48:20.191Z,0.80
2022-08-09T12:50:59.291Z,0.50
2022-08-09T12:53:37.139Z,0.70
2022-08-09T12:56:40.139Z,0.55
2022-08-09T12:59:09.208Z,0.43
2022-08-09T13:01:46.899Z,0.50
2022-08-09T13:04:36.807Z,0.77
2022-08-09T13:07:16.299Z,0.50
2022-08-09T13:09:55.975Z,0.40
2022-08-09T13:12:30.754Z,0.47
2022-08-09T13:15:07.092Z,0.43
2022-08-09T13:18:03.458Z,0.40
2022-08-09T13:20:37.133Z,0.50
2022-08-09T13:24:07.352Z,0.22
2022-08-09T13:25:56.984Z,0.40
2022-08-09T13:28:35.516Z,0.50
2022-08-09T13:32:15.193Z,0.43
2022-08-09T13:33:56.550Z,0.40
2022-08-09T13:36:40.826Z,0.50
2022-08-09T13:41:31.192Z,0.60
2022-08-09T13:42:03.548Z,0.50
2022-08-09T13:44:32.796Z,0.43
2022-08-09T13:47:28.962Z,0.30
2022-08-09T13:49:58.169Z,0.45
2022-08-09T13:52:30.535Z,0.50
2022-08-09T13:55:04.488Z,0.60
2022-08-09T13:57:40.140Z,0.50
2022-08-09T14:00:12.767Z,0.38
2022-08-09T14:03:03.248Z,0.52
2022-08-09T14:06:01.353Z,0.40
2022-08-09T14:08:20.935Z,0.30
2022-08-09T14:10:52.279Z,0.40
2022-08-09T14:14:15.311Z,0.50
2022-08-09T14:16:13.990Z,0.30
2022-08-09T14:18:45.661Z,0.50
2022-08-09T14:21:20.025Z,0.50
2022-08-09T14:23:55.438Z,0.40
2022-08-09T14:26:31.899Z,0.35
2022-08-09T14:29:07.546Z,0.80
2022-08-09T14:31:52.145Z,0.50
2022-08-09T14:34:27.479Z,0.40
2022-08-09T14:37:01.762Z,0.50
2022-08-09T14:39:40.362Z,0.47
2022-08-09T14:42:28.797Z,0.50
2022-08-09T14:46:39.445Z,0.60
2022-08-09T14:47:57.150Z,0.40
2022-08-09T14:50:26.943Z,0.40
2022-08-09T14:52:55.376Z,0.40
2022-08-09T14:55:23.777Z,0.50
2022-08-09T14:57:54.605Z,0.43
2022-08-09T15:00:24.546Z,0.40
2022-08-09T15:02:55.532Z,0.40
2022-08-09T15:05:26.837Z,0.40
2022-08-09T15:07:56.797Z,0.40
2022-08-09T15:10:26.962Z,0.52
2022-08-09T15:12:57.980Z,0.60
2022-08-09T15:15:28.537Z,0.80
2022-08-09T15:17:58.349Z,0.40
2022-08-09T15:21:54.685Z,0.75
2022-08-09T15:24:01.705Z,0.70
2022-08-09T15:26:04.948Z,0.60
2022-08-09T15:28:42.094Z,0.60
2022-08-09T15:31:17.507Z,0.40
2022-08-09T15:34:31.086Z,0.75
2022-08-09T15:36:35.990Z,0.52
2022-08-09T15:39:04.428Z,0.40
2022-08-09T15:41:32.967Z,0.50
2022-08-09T15:44:02.871Z,0.50
2022-08-09T15:46:34.965Z,0.50
2022-08-09T15:49:21.687Z,0.85
2022-08-09T15:52:03.029Z,0.55
2022-08-09T15:54:48.032Z,0.50
2022-08-09T15:57:18.925Z,0.45
2022-08-09T16:00:05.481Z,0.50
2022-08-09T16:02:33.831Z,0.50
2022-08-09T16:05:04.156Z,0.57
2022-08-09T16:07:38.781Z,0.60
2022-08-09T16:10:11.135Z,0.57
2022-08-09T16:12:50.606Z,0.75
2022-08-09T16:16:04.655Z,0.63
2022-08-09T16:18:11.925Z,1.17
2022-08-09T16:20:41.733Z,0.70
2022-08-09T16:23:12.424Z,0.63
2022-08-09T16:25:41.200Z,0.60
2022-08-09T16:28:12.280Z,0.75
2022-08-09T16:30:44.734Z,0.70
2022-08-09T16:33:27.113Z,0.90
2022-08-09T16:36:03.050Z,0.60
2022-08-09T16:38:34.794Z,0.80
2022-08-09T16:41:04.192Z,0.65
2022-08-09T16:43:32.812Z,0.90
2022-08-09T16:46:02.666Z,0.73
2022-08-09T16:48:39.218Z,0.90
2022-08-09T16:51:14.742Z,0.82
2022-08-09T16:54:09.102Z,0.80
2022-08-09T16:56:33.282Z,0.80
2022-08-09T16:59:06.909Z,0.70
2022-08-09T17:01:43.125Z,0.82
2022-08-09T17:04:28.317Z,0.80
2022-08-09T17:08:41.625Z,0.70
2022-08-09T17:09:47.457Z,0.60
2022-08-09T17:12:16.776Z,0.47
2022-08-09T17:14:49.108Z,0.88
2022-08-09T17:17:26.131Z,0.50
2022-08-09T17:20:33.169Z,0.88
2022-08-09T17:22:51.843Z,0.93
2022-08-09T17:25:23.586Z,0.95
2022-08-09T17:27:54.116Z,0.50
2022-08-09T17:30:26.093Z,0.60
2022-08-09T17:33:00.713Z,0.80
2022-08-09T17:35:35.204Z,0.63
2022-08-09T17:38:14.537Z,1.15
2022-08-09T17:40:53.817Z,0.70
2022-08-09T17:43:34.706Z,0.98
2022-08-09T17:46:07.636Z,0.75
2022-08-09T17:48:52.261Z,0.73
2022-08-09T17:51:21.518Z,0.75
2022-08-09T17:53:53.495Z,1.05
2022-08-09T17:56:27.094Z,0.50
2022-08-09T17:58:58.543Z,0.70
2022-08-09T18:01:58.034Z,0.88
2022-08-09T18:04:19.422Z,0.82
2022-08-09T18:06:49.651Z,0.90
2022-08-09T18:09:23.175Z,0.68
2022-08-09T18:12:14.442Z,0.75
2022-08-09T18:14:50.070Z,0.73
2022-08-09T18:18:01.535Z,0.80
2022-08-09T18:20:56.017Z,0.90
2022-08-09T18:23:05.671Z,0.90
2022-08-09T18:25:52.885Z,1.05
2022-08-09T18:30:37.726Z,0.80
2022-08-09T18:31:24.964Z,1.13
2022-08-09T18:34:04.127Z,0.90
2022-08-09T18:36:36.188Z,1.00
2022-08-09T18:39:06.565Z,0.90
2022-08-09T18:41:36.831Z,0.80
2022-08-09T18:44:13.772Z,0.75
2022-08-09T18:46:51.473Z,0.88
2022-08-09T18:49:43.354Z,1.00
2022-08-09T18:52:18.881Z,1.20
2022-08-09T18:54:57.463Z,0.93
2022-08-09T18:57:42.749Z,1.23
2022-08-09T19:00:16.656Z,0.75
2022-08-09T19:02:50.915Z,0.93
2022-08-09T19:05:49.291Z,0.90
2022-08-09T19:08:14.035Z,0.70
2022-08-09T19:10:47.993Z,1.00
2022-08-09T19:13:19.402Z,1.08
2022-08-09T19:15:58.728Z,0.90
2022-08-09T19:18:32.937Z,0.73
2022-08-09T19:21:05.470Z,0.90
2022-08-09T19:24:36.426Z,0.70
2022-08-09T19:26:32.316Z,0.80
2022-08-09T19:29:02.587Z,1.02
2022-08-09T19:31:44.926Z,0.77
2022-08-09T19:34:21.285Z,0.80
2022-08-09T19:36:52.675Z,0.88
2022-08-09T19:39:29.180Z,1.13
2022-08-09T19:42:19.485Z,1.08
2022-08-09T19:44:50.878Z,0.80
2022-08-09T19:47:23.578Z,0.93
2022-08-09T19:50:09.906Z,0.88
2022-08-09T19:52:51.524Z,0.95
2022-08-09T19:55:25.501Z,0.70
2022-08-09T19:57:54.909Z,1.15
2022-08-09T20:00:23.752Z,0.90
2022-08-09T20:04:10.093Z,1.17
2022-08-09T20:05:50.485Z,0.88
2022-08-09T20:08:24.864Z,0.88
2022-08-09T20:11:05.513Z,1.33
2022-08-09T20:13:37.098Z,1.63
2022-08-09T20:16:37.479Z,1.10
2022-08-09T20:19:42.322Z,1.30
2022-08-09T20:21:56.521Z,1.40
2022-08-09T20:24:32.156Z,1.10
2022-08-09T20:27:08.216Z,1.00
2022-08-09T20:29:39.656Z,1.10
2022-08-09T20:32:28.624Z,1.00
2022-08-09T20:35:01.455Z,0.85
2022-08-09T20:38:18.756Z,0.77
2022-08-09T20:40:27.057Z,0.83
2022-08-09T20:43:19.191Z,0.80
2022-08-09T20:45:59.707Z,0.80
2022-08-09T20:48:40.096Z,0.90
2022-08-09T20:51:19.170Z,0.98
2022-08-09T20:53:49.110Z,1.10
2022-08-09T20:56:20.927Z,0.73
2022-08-09T20:58:57.917Z,1.10
2022-08-09T21:01:35.485Z,1.08
2022-08-09T21:05:53.877Z,1.10
2022-08-09T21:07:12.565Z,1.10
2022-08-09T21:09:56.502Z,1.48
2022-08-09T21:12:32.295Z,0.85
2022-08-09T21:15:17.593Z,1.00
2022-08-09T21:18:20.929Z,1.10
2022-08-09T21:20:42.407Z,0.85
2022-08-09T21:23:13.486Z,1.03
2022-08-09T21:25:59.554Z,0.85
2022-08-09T21:28:33.344Z,0.90
2022-08-09T21:31:13.668Z,1.07
2022-08-09T21:33:50.866Z,1.00
2022-08-09T21:36:22.964Z,1.00
2022-08-09T21:38:57.238Z,1.10
2022-08-09T21:42:05.398Z,0.90
2022-08-09T21:44:34.155Z,0.70
2022-08-09T21:47:07.497Z,1.10
2022-08-09T21:49:40.523Z,0.90
2022-08-09T21:52:14.914Z,0.90
2022-08-09T21:54:50.625Z,1.00
2022-08-09T21:57:37.084Z,0.90
2022-08-09T22:00:09.814Z,1.10
2022-08-09T22:02:43.134Z,0.90
2022-08-09T22:05:22.818Z,0.97
2022-08-09T22:07:53.094Z,1.00
2022-08-09T22:10:22.849Z,1.00
2022-08-09T22:12:52.454Z,0.70
2022-08-09T22:15:23.321Z,1.00
2022-08-09T22:18:04.526Z,1.13
2022-08-09T22:20:40.948Z,1.10
2022-08-09T22:23:13.478Z,1.10
2022-08-09T22:26:05.864Z,0.97
2022-08-09T22:28:33.188Z,0.73
2022-08-09T22:31:01.986Z,1.10
2022-08-09T22:33:48.776Z,1.10
2022-08-09T22:36:20.816Z,0.90
2022-08-09T22:38:49.273Z,1.27
2022-08-09T22:41:19.231Z,1.07
2022-08-09T22:44:03.683Z,0.97
2022-08-09T22:48:11.991Z,0.90
2022-08-09T22:49:23.516Z,1.10
2022-08-09T22:51:56.813Z,0.87
2022-08-09T22:54:27.345Z,1.00
2022-08-09T22:56:57.349Z,1.20
2022-08-09T22:59:58.133Z,0.87
2022-08-09T23:02:20.397Z,1.00
2022-08-09T23:04:54.035Z,1.03
2022-08-09T23:08:27.313Z,1.00
2022-08-09T23:10:30.346Z,1.20
2022-08-09T23:12:58.852Z,1.10
2022-08-09T23:15:27.787Z,0.87
2022-08-09T23:17:56.338Z,1.00
2022-08-09T23:20:28.774Z,1.27
2022-08-09T23:22:57.389Z,1.00
2022-08-09T23:25:25.845Z,1.20
2022-08-09T23:27:57.361Z,1.10
2022-08-09T23:30:51.713Z,1.43
2022-08-09T23:33:20.931Z,1.30
2022-08-09T23:36:05.610Z,1.13
2022-08-09T23:38:35.626Z,1.37
2022-08-09T23:41:04.227Z,1.00
2022-08-09T23:43:32.880Z,1.23
2022-08-09T23:46:01.375Z,1.20
2022-08-09T23:48:29.803Z,1.00
2022-08-09T23:50:59.514Z,1.37
2022-08-09T23:53:33.584Z,1.40
2022-08-09T23:56:07.437Z,1.13
2022-08-09T23:58:35.855Z,1.07
